sensor_id;sensor_type;location;lat;lon;timestamp;P1;durP1;ratioP1;P2;durP2;ratioP2
37529;SDS011;23374;52.758;6.872;2023-06-14T00:01:51;4.07;;;1.63;;
37529;SDS011;23374;52.758;6.872;2023-06-14T00:04:12;1.80;;;1.47;;
37529;SDS011;23374;52.758;6.872;2023-06-14T00:06:33;4.30;;;1.63;;
37529;SDS011;23374;52.758;6.872;2023-06-14T00:08:54;5.30;;;1.50;;
37529;SDS011;23374;52.758;6.872;2023-06-14T00:11:14;3.63;;;1.53;;
37529;SDS011;23374;52.758;6.872;2023-06-14T00:13:35;3.30;;;1.60;;
37529;SDS011;23374;52.758;6.872;2023-06-14T00:15:55;2.80;;;1.57;;
37529;SDS011;23374;52.758;6.872;2023-06-14T00:18:15;2.47;;;1.43;;
37529;SDS011;23374;52.758;6.872;2023-06-14T00:20:37;3.03;;;1.80;;
37529;SDS011;23374;52.758;6.872;2023-06-14T00:22:59;2.57;;;1.80;;
37529;SDS011;23374;52.758;6.872;2023-06-14T00:25:22;5.50;;;1.60;;
37529;SDS011;23374;52.758;6.872;2023-06-14T00:27:46;2.73;;;1.70;;
37529;SDS011;23374;52.758;6.872;2023-06-14T00:30:07;2.80;;;1.70;;
37529;SDS011;23374;52.758;6.872;2023-06-14T00:32:28;4.23;;;1.67;;
37529;SDS011;23374;52.758;6.872;2023-06-14T00:34:49;5.70;;;1.67;;
37529;SDS011;23374;52.758;6.872;2023-06-14T00:37:09;4.10;;;1.60;;
37529;SDS011;23374;52.758;6.872;2023-06-14T00:39:29;4.73;;;1.30;;
37529;SDS011;23374;52.758;6.872;2023-06-14T00:41:50;5.57;;;1.80;;
37529;SDS011;23374;52.758;6.872;2023-06-14T00:44:10;2.17;;;1.60;;
37529;SDS011;23374;52.758;6.872;2023-06-14T00:46:31;3.80;;;1.80;;
37529;SDS011;23374;52.758;6.872;2023-06-14T00:50:13;2.13;;;1.53;;
37529;SDS011;23374;52.758;6.872;2023-06-14T00:52:34;2.10;;;1.37;;
37529;SDS011;23374;52.758;6.872;2023-06-14T00:54:55;5.93;;;2.00;;
37529;SDS011;23374;52.758;6.872;2023-06-14T00:57:16;2.13;;;1.67;;
37529;SDS011;23374;52.758;6.872;2023-06-14T00:59:48;4.03;;;1.80;;
37529;SDS011;23374;52.758;6.872;2023-06-14T01:02:09;6.40;;;2.10;;
37529;SDS011;23374;52.758;6.872;2023-06-14T01:04:31;3.73;;;2.00;;
37529;SDS011;23374;52.758;6.872;2023-06-14T01:16:28;3.17;;;1.50;;
37529;SDS011;23374;52.758;6.872;2023-06-14T01:18:52;3.13;;;1.70;;
37529;SDS011;23374;52.758;6.872;2023-06-14T01:21:23;3.37;;;1.80;;
37529;SDS011;23374;52.758;6.872;2023-06-14T01:23:44;3.63;;;1.73;;
37529;SDS011;23374;52.758;6.872;2023-06-14T01:26:05;3.53;;;1.40;;
37529;SDS011;23374;52.758;6.872;2023-06-14T01:28:26;4.27;;;1.80;;
37529;SDS011;23374;52.758;6.872;2023-06-14T01:30:54;3.50;;;1.47;;
37529;SDS011;23374;52.758;6.872;2023-06-14T01:33:16;2.00;;;1.50;;
37529;SDS011;23374;52.758;6.872;2023-06-14T01:35:42;3.13;;;1.70;;
37529;SDS011;23374;52.758;6.872;2023-06-14T01:38:04;4.03;;;1.60;;
37529;SDS011;23374;52.758;6.872;2023-06-14T01:40:26;5.33;;;1.90;;
37529;SDS011;23374;52.758;6.872;2023-06-14T01:42:48;2.50;;;1.60;;
37529;SDS011;23374;52.758;6.872;2023-06-14T01:45:10;3.20;;;1.70;;
37529;SDS011;23374;52.758;6.872;2023-06-14T01:47:31;2.33;;;1.60;;
37529;SDS011;23374;52.758;6.872;2023-06-14T01:50:20;3.50;;;1.77;;
37529;SDS011;23374;52.758;6.872;2023-06-14T01:52:40;3.87;;;1.60;;
37529;SDS011;23374;52.758;6.872;2023-06-14T01:55:01;4.07;;;1.77;;
37529;SDS011;23374;52.758;6.872;2023-06-14T01:57:23;2.90;;;1.50;;
37529;SDS011;23374;52.758;6.872;2023-06-14T01:59:44;5.10;;;1.80;;
37529;SDS011;23374;52.758;6.872;2023-06-14T02:02:07;2.60;;;1.63;;
37529;SDS011;23374;52.758;6.872;2023-06-14T02:04:28;5.67;;;1.80;;
37529;SDS011;23374;52.758;6.872;2023-06-14T02:06:48;2.57;;;1.50;;
37529;SDS011;23374;52.758;6.872;2023-06-14T02:09:09;2.83;;;1.60;;
37529;SDS011;23374;52.758;6.872;2023-06-14T02:11:29;3.27;;;1.73;;
37529;SDS011;23374;52.758;6.872;2023-06-14T02:13:50;3.40;;;1.70;;
37529;SDS011;23374;52.758;6.872;2023-06-14T02:16:10;4.77;;;1.40;;
37529;SDS011;23374;52.758;6.872;2023-06-14T02:18:30;2.63;;;1.70;;
37529;SDS011;23374;52.758;6.872;2023-06-14T02:20:51;4.40;;;1.93;;
37529;SDS011;23374;52.758;6.872;2023-06-14T02:23:12;2.53;;;1.87;;
37529;SDS011;23374;52.758;6.872;2023-06-14T02:25:32;5.53;;;1.90;;
37529;SDS011;23374;52.758;6.872;2023-06-14T02:27:54;5.20;;;1.80;;
37529;SDS011;23374;52.758;6.872;2023-06-14T02:30:15;3.87;;;1.60;;
37529;SDS011;23374;52.758;6.872;2023-06-14T02:32:35;4.93;;;1.63;;
37529;SDS011;23374;52.758;6.872;2023-06-14T02:34:55;3.00;;;1.80;;
37529;SDS011;23374;52.758;6.872;2023-06-14T02:37:16;3.60;;;1.53;;
37529;SDS011;23374;52.758;6.872;2023-06-14T02:39:37;3.90;;;1.77;;
37529;SDS011;23374;52.758;6.872;2023-06-14T02:41:57;3.20;;;1.70;;
37529;SDS011;23374;52.758;6.872;2023-06-14T02:44:18;7.13;;;1.97;;
37529;SDS011;23374;52.758;6.872;2023-06-14T02:46:38;3.67;;;1.83;;
37529;SDS011;23374;52.758;6.872;2023-06-14T02:48:59;2.73;;;1.70;;
37529;SDS011;23374;52.758;6.872;2023-06-14T02:51:20;6.33;;;1.80;;
37529;SDS011;23374;52.758;6.872;2023-06-14T02:53:40;1.77;;;1.60;;
37529;SDS011;23374;52.758;6.872;2023-06-14T02:56:00;2.07;;;1.53;;
37529;SDS011;23374;52.758;6.872;2023-06-14T02:58:21;3.07;;;1.50;;
37529;SDS011;23374;52.758;6.872;2023-06-14T03:00:42;4.77;;;1.70;;
37529;SDS011;23374;52.758;6.872;2023-06-14T03:03:03;4.63;;;1.80;;
37529;SDS011;23374;52.758;6.872;2023-06-14T03:05:24;1.97;;;1.67;;
37529;SDS011;23374;52.758;6.872;2023-06-14T03:07:48;5.33;;;1.97;;
37529;SDS011;23374;52.758;6.872;2023-06-14T03:10:10;8.27;;;1.90;;
37529;SDS011;23374;52.758;6.872;2023-06-14T03:12:32;2.50;;;1.50;;
37529;SDS011;23374;52.758;6.872;2023-06-14T03:14:53;4.63;;;1.73;;
37529;SDS011;23374;52.758;6.872;2023-06-14T03:17:16;2.87;;;1.87;;
37529;SDS011;23374;52.758;6.872;2023-06-14T03:19:37;3.97;;;2.00;;
37529;SDS011;23374;52.758;6.872;2023-06-14T03:21:57;3.07;;;1.70;;
37529;SDS011;23374;52.758;6.872;2023-06-14T03:24:18;3.67;;;1.63;;
37529;SDS011;23374;52.758;6.872;2023-06-14T03:26:39;7.53;;;2.00;;
37529;SDS011;23374;52.758;6.872;2023-06-14T03:29:00;3.67;;;1.90;;
37529;SDS011;23374;52.758;6.872;2023-06-14T03:31:21;2.50;;;1.50;;
37529;SDS011;23374;52.758;6.872;2023-06-14T03:33:41;3.67;;;1.60;;
37529;SDS011;23374;52.758;6.872;2023-06-14T03:36:02;4.33;;;1.87;;
37529;SDS011;23374;52.758;6.872;2023-06-14T03:38:23;2.73;;;1.80;;
37529;SDS011;23374;52.758;6.872;2023-06-14T03:40:44;5.63;;;1.70;;
37529;SDS011;23374;52.758;6.872;2023-06-14T03:43:05;3.33;;;1.77;;
37529;SDS011;23374;52.758;6.872;2023-06-14T03:45:25;3.83;;;1.60;;
37529;SDS011;23374;52.758;6.872;2023-06-14T03:47:46;5.03;;;2.10;;
37529;SDS011;23374;52.758;6.872;2023-06-14T03:50:06;3.73;;;1.87;;
37529;SDS011;23374;52.758;6.872;2023-06-14T03:52:27;2.17;;;1.60;;
37529;SDS011;23374;52.758;6.872;2023-06-14T03:54:48;3.43;;;1.90;;
37529;SDS011;23374;52.758;6.872;2023-06-14T03:57:09;4.63;;;1.70;;
37529;SDS011;23374;52.758;6.872;2023-06-14T03:59:30;3.77;;;1.90;;
37529;SDS011;23374;52.758;6.872;2023-06-14T04:01:50;3.10;;;1.90;;
37529;SDS011;23374;52.758;6.872;2023-06-14T04:04:11;3.57;;;1.80;;
37529;SDS011;23374;52.758;6.872;2023-06-14T04:06:32;2.77;;;1.83;;
37529;SDS011;23374;52.758;6.872;2023-06-14T04:08:52;3.20;;;1.93;;
37529;SDS011;23374;52.758;6.872;2023-06-14T04:11:13;5.33;;;2.10;;
37529;SDS011;23374;52.758;6.872;2023-06-14T04:13:33;2.40;;;1.80;;
37529;SDS011;23374;52.758;6.872;2023-06-14T04:15:54;3.83;;;1.77;;
37529;SDS011;23374;52.758;6.872;2023-06-14T04:18:16;1.90;;;1.63;;
37529;SDS011;23374;52.758;6.872;2023-06-14T04:20:37;2.90;;;1.70;;
37529;SDS011;23374;52.758;6.872;2023-06-14T04:23:13;2.83;;;2.10;;
37529;SDS011;23374;52.758;6.872;2023-06-14T04:25:34;2.90;;;1.77;;
37529;SDS011;23374;52.758;6.872;2023-06-14T04:27:55;2.57;;;1.90;;
37529;SDS011;23374;52.758;6.872;2023-06-14T04:30:15;3.57;;;1.90;;
37529;SDS011;23374;52.758;6.872;2023-06-14T04:32:36;4.03;;;2.30;;
37529;SDS011;23374;52.758;6.872;2023-06-14T04:34:59;1.80;;;1.20;;
37529;SDS011;23374;52.758;6.872;2023-06-14T04:37:23;4.63;;;2.30;;
37529;SDS011;23374;52.758;6.872;2023-06-14T04:39:43;7.10;;;2.30;;
37529;SDS011;23374;52.758;6.872;2023-06-14T04:42:04;2.83;;;1.80;;
37529;SDS011;23374;52.758;6.872;2023-06-14T04:44:26;6.03;;;1.93;;
37529;SDS011;23374;52.758;6.872;2023-06-14T04:46:49;6.23;;;2.30;;
37529;SDS011;23374;52.758;6.872;2023-06-14T04:49:14;3.53;;;2.13;;
37529;SDS011;23374;52.758;6.872;2023-06-14T04:51:36;2.93;;;1.97;;
37529;SDS011;23374;52.758;6.872;2023-06-14T04:53:56;3.70;;;2.23;;
37529;SDS011;23374;52.758;6.872;2023-06-14T04:56:18;2.93;;;2.07;;
37529;SDS011;23374;52.758;6.872;2023-06-14T04:58:38;4.93;;;2.20;;
37529;SDS011;23374;52.758;6.872;2023-06-14T05:00:59;3.40;;;2.13;;
37529;SDS011;23374;52.758;6.872;2023-06-14T05:03:24;2.73;;;2.00;;
37529;SDS011;23374;52.758;6.872;2023-06-14T05:05:44;3.63;;;2.10;;
37529;SDS011;23374;52.758;6.872;2023-06-14T05:08:05;3.17;;;2.10;;
37529;SDS011;23374;52.758;6.872;2023-06-14T05:10:25;2.73;;;2.10;;
37529;SDS011;23374;52.758;6.872;2023-06-14T05:12:45;2.80;;;2.10;;
37529;SDS011;23374;52.758;6.872;2023-06-14T05:15:08;3.33;;;2.17;;
37529;SDS011;23374;52.758;6.872;2023-06-14T05:17:30;6.80;;;2.17;;
37529;SDS011;23374;52.758;6.872;2023-06-14T05:19:50;6.80;;;2.13;;
37529;SDS011;23374;52.758;6.872;2023-06-14T05:22:10;3.93;;;2.17;;
37529;SDS011;23374;52.758;6.872;2023-06-14T05:24:31;3.07;;;2.20;;
37529;SDS011;23374;52.758;6.872;2023-06-14T05:26:51;3.70;;;2.47;;
37529;SDS011;23374;52.758;6.872;2023-06-14T05:29:12;4.63;;;2.23;;
37529;SDS011;23374;52.758;6.872;2023-06-14T05:31:32;4.20;;;2.23;;
37529;SDS011;23374;52.758;6.872;2023-06-14T05:33:53;4.20;;;1.93;;
37529;SDS011;23374;52.758;6.872;2023-06-14T05:36:14;3.50;;;2.23;;
37529;SDS011;23374;52.758;6.872;2023-06-14T05:38:34;3.97;;;2.10;;
37529;SDS011;23374;52.758;6.872;2023-06-14T05:40:55;4.80;;;2.13;;
37529;SDS011;23374;52.758;6.872;2023-06-14T05:43:15;4.90;;;2.20;;
37529;SDS011;23374;52.758;6.872;2023-06-14T05:45:35;4.57;;;2.20;;
37529;SDS011;23374;52.758;6.872;2023-06-14T05:47:55;2.97;;;2.27;;
37529;SDS011;23374;52.758;6.872;2023-06-14T05:50:16;4.33;;;2.20;;
37529;SDS011;23374;52.758;6.872;2023-06-14T05:52:36;7.47;;;2.17;;
37529;SDS011;23374;52.758;6.872;2023-06-14T05:54:57;2.93;;;1.93;;
37529;SDS011;23374;52.758;6.872;2023-06-14T05:57:17;4.33;;;2.40;;
37529;SDS011;23374;52.758;6.872;2023-06-14T05:59:37;4.57;;;2.10;;
37529;SDS011;23374;52.758;6.872;2023-06-14T06:01:58;2.83;;;1.90;;
37529;SDS011;23374;52.758;6.872;2023-06-14T06:04:18;3.37;;;1.90;;
37529;SDS011;23374;52.758;6.872;2023-06-14T06:06:39;4.43;;;1.97;;
37529;SDS011;23374;52.758;6.872;2023-06-14T06:08:59;3.97;;;2.23;;
37529;SDS011;23374;52.758;6.872;2023-06-14T06:11:20;3.60;;;2.03;;
37529;SDS011;23374;52.758;6.872;2023-06-14T06:13:40;2.87;;;2.00;;
37529;SDS011;23374;52.758;6.872;2023-06-14T06:16:02;2.97;;;2.10;;
37529;SDS011;23374;52.758;6.872;2023-06-14T06:18:23;3.37;;;2.03;;
37529;SDS011;23374;52.758;6.872;2023-06-14T06:20:43;2.53;;;1.90;;
37529;SDS011;23374;52.758;6.872;2023-06-14T06:23:05;2.87;;;1.53;;
37529;SDS011;23374;52.758;6.872;2023-06-14T06:25:27;7.03;;;2.03;;
37529;SDS011;23374;52.758;6.872;2023-06-14T06:27:48;3.47;;;1.97;;
37529;SDS011;23374;52.758;6.872;2023-06-14T06:30:09;6.57;;;2.00;;
37529;SDS011;23374;52.758;6.872;2023-06-14T06:32:30;5.37;;;2.13;;
37529;SDS011;23374;52.758;6.872;2023-06-14T06:34:51;4.40;;;2.07;;
37529;SDS011;23374;52.758;6.872;2023-06-14T06:37:11;3.80;;;1.60;;
37529;SDS011;23374;52.758;6.872;2023-06-14T06:39:33;2.87;;;1.90;;
37529;SDS011;23374;52.758;6.872;2023-06-14T06:41:53;3.57;;;1.60;;
37529;SDS011;23374;52.758;6.872;2023-06-14T06:44:14;4.47;;;1.83;;
37529;SDS011;23374;52.758;6.872;2023-06-14T06:46:34;3.27;;;2.30;;
37529;SDS011;23374;52.758;6.872;2023-06-14T06:48:55;6.33;;;1.60;;
37529;SDS011;23374;52.758;6.872;2023-06-14T06:51:15;2.57;;;1.53;;
37529;SDS011;23374;52.758;6.872;2023-06-14T06:53:36;2.43;;;1.63;;
37529;SDS011;23374;52.758;6.872;2023-06-14T06:55:56;2.10;;;1.40;;
37529;SDS011;23374;52.758;6.872;2023-06-14T06:58:16;3.10;;;1.70;;
37529;SDS011;23374;52.758;6.872;2023-06-14T07:00:36;3.40;;;1.57;;
37529;SDS011;23374;52.758;6.872;2023-06-14T07:02:56;2.30;;;1.60;;
37529;SDS011;23374;52.758;6.872;2023-06-14T07:05:17;1.23;;;0.90;;
37529;SDS011;23374;52.758;6.872;2023-06-14T07:07:37;2.57;;;1.70;;
37529;SDS011;23374;52.758;6.872;2023-06-14T07:09:58;1.80;;;1.53;;
37529;SDS011;23374;52.758;6.872;2023-06-14T07:12:20;6.40;;;1.70;;
37529;SDS011;23374;52.758;6.872;2023-06-14T07:14:40;2.70;;;1.53;;
37529;SDS011;23374;52.758;6.872;2023-06-14T07:17:00;2.10;;;1.70;;
37529;SDS011;23374;52.758;6.872;2023-06-14T07:19:21;3.67;;;1.50;;
37529;SDS011;23374;52.758;6.872;2023-06-14T07:21:41;5.30;;;1.60;;
37529;SDS011;23374;52.758;6.872;2023-06-14T07:24:02;2.40;;;1.50;;
37529;SDS011;23374;52.758;6.872;2023-06-14T07:26:23;2.47;;;1.43;;
37529;SDS011;23374;52.758;6.872;2023-06-14T07:28:44;2.43;;;1.50;;
37529;SDS011;23374;52.758;6.872;2023-06-14T07:31:05;1.50;;;1.40;;
37529;SDS011;23374;52.758;6.872;2023-06-14T07:33:26;3.23;;;1.40;;
37529;SDS011;23374;52.758;6.872;2023-06-14T07:35:47;3.13;;;1.77;;
37529;SDS011;23374;52.758;6.872;2023-06-14T07:38:08;3.37;;;1.50;;
37529;SDS011;23374;52.758;6.872;2023-06-14T07:40:29;1.77;;;1.40;;
37529;SDS011;23374;52.758;6.872;2023-06-14T07:42:49;3.83;;;1.50;;
37529;SDS011;23374;52.758;6.872;2023-06-14T07:45:12;1.33;;;1.20;;
37529;SDS011;23374;52.758;6.872;2023-06-14T07:47:34;1.53;;;1.27;;
37529;SDS011;23374;52.758;6.872;2023-06-14T07:49:55;3.60;;;1.77;;
37529;SDS011;23374;52.758;6.872;2023-06-14T07:52:16;2.93;;;1.50;;
37529;SDS011;23374;52.758;6.872;2023-06-14T07:54:36;3.03;;;1.50;;
37529;SDS011;23374;52.758;6.872;2023-06-14T07:56:57;1.10;;;1.00;;
37529;SDS011;23374;52.758;6.872;2023-06-14T07:59:20;3.10;;;1.60;;
37529;SDS011;23374;52.758;6.872;2023-06-14T08:01:41;4.23;;;1.37;;
37529;SDS011;23374;52.758;6.872;2023-06-14T08:04:06;2.63;;;1.30;;
37529;SDS011;23374;52.758;6.872;2023-06-14T08:06:26;3.63;;;1.40;;
37529;SDS011;23374;52.758;6.872;2023-06-14T08:08:47;1.90;;;1.40;;
37529;SDS011;23374;52.758;6.872;2023-06-14T08:11:07;2.13;;;1.20;;
37529;SDS011;23374;52.758;6.872;2023-06-14T08:13:28;2.43;;;1.50;;
37529;SDS011;23374;52.758;6.872;2023-06-14T08:15:48;4.13;;;1.57;;
37529;SDS011;23374;52.758;6.872;2023-06-14T08:18:09;2.70;;;1.20;;
37529;SDS011;23374;52.758;6.872;2023-06-14T08:20:29;1.17;;;1.07;;
37529;SDS011;23374;52.758;6.872;2023-06-14T08:22:51;1.90;;;1.00;;
37529;SDS011;23374;52.758;6.872;2023-06-14T08:25:15;1.57;;;1.23;;
37529;SDS011;23374;52.758;6.872;2023-06-14T08:27:35;1.90;;;1.13;;
37529;SDS011;23374;52.758;6.872;2023-06-14T08:29:56;1.57;;;1.20;;
37529;SDS011;23374;52.758;6.872;2023-06-14T08:32:16;1.70;;;1.30;;
37529;SDS011;23374;52.758;6.872;2023-06-14T08:34:36;3.33;;;1.20;;
37529;SDS011;23374;52.758;6.872;2023-06-14T08:36:57;1.37;;;0.80;;
37529;SDS011;23374;52.758;6.872;2023-06-14T08:39:17;2.43;;;1.07;;
37529;SDS011;23374;52.758;6.872;2023-06-14T08:41:37;0.60;;;0.60;;
37529;SDS011;23374;52.758;6.872;2023-06-14T08:43:58;1.73;;;1.00;;
37529;SDS011;23374;52.758;6.872;2023-06-14T08:46:19;2.77;;;1.20;;
37529;SDS011;23374;52.758;6.872;2023-06-14T08:48:40;2.90;;;1.07;;
37529;SDS011;23374;52.758;6.872;2023-06-14T08:51:01;1.73;;;1.00;;
37529;SDS011;23374;52.758;6.872;2023-06-14T08:53:23;2.40;;;1.10;;
37529;SDS011;23374;52.758;6.872;2023-06-14T08:55:44;1.13;;;1.03;;
37529;SDS011;23374;52.758;6.872;2023-06-14T08:58:05;1.97;;;1.13;;
37529;SDS011;23374;52.758;6.872;2023-06-14T09:00:26;1.73;;;1.20;;
37529;SDS011;23374;52.758;6.872;2023-06-14T09:02:47;1.37;;;1.00;;
37529;SDS011;23374;52.758;6.872;2023-06-14T09:05:08;1.47;;;1.00;;
37529;SDS011;23374;52.758;6.872;2023-06-14T09:07:30;3.57;;;1.17;;
37529;SDS011;23374;52.758;6.872;2023-06-14T09:10:05;1.80;;;1.03;;
37529;SDS011;23374;52.758;6.872;2023-06-14T09:12:31;1.67;;;1.10;;
37529;SDS011;23374;52.758;6.872;2023-06-14T09:14:52;1.60;;;1.20;;
37529;SDS011;23374;52.758;6.872;2023-06-14T09:17:13;2.27;;;1.43;;
37529;SDS011;23374;52.758;6.872;2023-06-14T09:19:35;0.73;;;0.40;;
37529;SDS011;23374;52.758;6.872;2023-06-14T09:21:56;2.43;;;1.17;;
37529;SDS011;23374;52.758;6.872;2023-06-14T09:24:16;2.00;;;1.20;;
37529;SDS011;23374;52.758;6.872;2023-06-14T09:26:38;1.10;;;0.73;;
37529;SDS011;23374;52.758;6.872;2023-06-14T09:28:59;3.70;;;1.53;;
37529;SDS011;23374;52.758;6.872;2023-06-14T09:31:20;2.17;;;1.13;;
37529;SDS011;23374;52.758;6.872;2023-06-14T09:33:43;2.03;;;1.33;;
37529;SDS011;23374;52.758;6.872;2023-06-14T09:36:12;1.27;;;0.93;;
37529;SDS011;23374;52.758;6.872;2023-06-14T09:38:35;3.90;;;1.10;;
37529;SDS011;23374;52.758;6.872;2023-06-14T09:40:57;1.93;;;0.67;;
37529;SDS011;23374;52.758;6.872;2023-06-14T09:43:18;1.30;;;1.20;;
37529;SDS011;23374;52.758;6.872;2023-06-14T09:45:41;3.37;;;1.10;;
37529;SDS011;23374;52.758;6.872;2023-06-14T09:48:06;1.43;;;1.07;;
37529;SDS011;23374;52.758;6.872;2023-06-14T09:50:28;1.13;;;0.83;;
37529;SDS011;23374;52.758;6.872;2023-06-14T09:52:49;1.63;;;1.13;;
37529;SDS011;23374;52.758;6.872;2023-06-14T09:55:12;2.87;;;1.07;;
37529;SDS011;23374;52.758;6.872;2023-06-14T09:57:33;3.20;;;1.07;;
37529;SDS011;23374;52.758;6.872;2023-06-14T09:59:58;2.03;;;1.03;;
37529;SDS011;23374;52.758;6.872;2023-06-14T10:02:29;2.10;;;1.00;;
37529;SDS011;23374;52.758;6.872;2023-06-14T10:05:03;2.73;;;0.97;;
37529;SDS011;23374;52.758;6.872;2023-06-14T10:07:35;1.60;;;1.00;;
37529;SDS011;23374;52.758;6.872;2023-06-14T10:10:01;2.23;;;1.30;;
37529;SDS011;23374;52.758;6.872;2023-06-14T10:12:22;1.50;;;1.07;;
37529;SDS011;23374;52.758;6.872;2023-06-14T10:14:43;2.00;;;1.10;;
37529;SDS011;23374;52.758;6.872;2023-06-14T10:17:06;2.03;;;1.10;;
37529;SDS011;23374;52.758;6.872;2023-06-14T10:19:37;2.13;;;0.80;;
37529;SDS011;23374;52.758;6.872;2023-06-14T10:22:18;1.47;;;1.17;;
37529;SDS011;23374;52.758;6.872;2023-06-14T10:24:45;1.10;;;0.83;;
37529;SDS011;23374;52.758;6.872;2023-06-14T10:27:07;1.20;;;1.00;;
37529;SDS011;23374;52.758;6.872;2023-06-14T10:29:30;2.07;;;1.00;;
37529;SDS011;23374;52.758;6.872;2023-06-14T10:31:57;1.70;;;1.10;;
37529;SDS011;23374;52.758;6.872;2023-06-14T10:34:26;1.37;;;0.80;;
37529;SDS011;23374;52.758;6.872;2023-06-14T10:37:00;1.77;;;1.00;;
37529;SDS011;23374;52.758;6.872;2023-06-14T10:39:22;1.10;;;0.90;;
37529;SDS011;23374;52.758;6.872;2023-06-14T10:41:53;1.47;;;1.00;;
37529;SDS011;23374;52.758;6.872;2023-06-14T10:45:37;0.97;;;0.77;;
37529;SDS011;23374;52.758;6.872;2023-06-14T10:50:48;1.57;;;1.10;;
37529;SDS011;23374;52.758;6.872;2023-06-14T10:53:22;1.73;;;0.90;;
37529;SDS011;23374;52.758;6.872;2023-06-14T10:55:43;1.60;;;1.13;;
37529;SDS011;23374;52.758;6.872;2023-06-14T10:58:04;3.40;;;1.20;;
37529;SDS011;23374;52.758;6.872;2023-06-14T11:00:25;0.60;;;0.50;;
37529;SDS011;23374;52.758;6.872;2023-06-14T11:03:31;1.13;;;0.83;;
37529;SDS011;23374;52.758;6.872;2023-06-14T11:06:13;1.80;;;1.00;;
37529;SDS011;23374;52.758;6.872;2023-06-14T11:13:54;1.50;;;1.13;;
37529;SDS011;23374;52.758;6.872;2023-06-14T11:16:16;1.30;;;1.00;;
37529;SDS011;23374;52.758;6.872;2023-06-14T11:18:38;1.73;;;1.13;;
37529;SDS011;23374;52.758;6.872;2023-06-14T11:20:58;1.30;;;1.00;;
37529;SDS011;23374;52.758;6.872;2023-06-14T11:23:19;3.00;;;1.20;;
37529;SDS011;23374;52.758;6.872;2023-06-14T11:25:40;1.77;;;1.30;;
37529;SDS011;23374;52.758;6.872;2023-06-14T11:28:01;2.87;;;1.20;;
37529;SDS011;23374;52.758;6.872;2023-06-14T11:30:21;1.63;;;1.00;;
37529;SDS011;23374;52.758;6.872;2023-06-14T11:32:45;1.33;;;1.00;;
37529;SDS011;23374;52.758;6.872;2023-06-14T11:35:08;2.57;;;1.30;;
37529;SDS011;23374;52.758;6.872;2023-06-14T11:37:29;1.57;;;0.83;;
37529;SDS011;23374;52.758;6.872;2023-06-14T11:39:49;1.77;;;1.07;;
37529;SDS011;23374;52.758;6.872;2023-06-14T11:42:14;5.63;;;1.20;;
37529;SDS011;23374;52.758;6.872;2023-06-14T11:44:35;1.80;;;0.83;;
37529;SDS011;23374;52.758;6.872;2023-06-14T11:46:56;1.47;;;1.20;;
37529;SDS011;23374;52.758;6.872;2023-06-14T11:49:17;1.37;;;1.07;;
37529;SDS011;23374;52.758;6.872;2023-06-14T11:53:29;3.27;;;1.00;;
37529;SDS011;23374;52.758;6.872;2023-06-14T11:55:50;1.40;;;1.17;;
37529;SDS011;23374;52.758;6.872;2023-06-14T11:58:11;3.17;;;1.20;;
37529;SDS011;23374;52.758;6.872;2023-06-14T12:00:31;2.20;;;1.03;;
37529;SDS011;23374;52.758;6.872;2023-06-14T12:02:56;1.33;;;0.80;;
37529;SDS011;23374;52.758;6.872;2023-06-14T12:05:20;1.70;;;1.27;;
37529;SDS011;23374;52.758;6.872;2023-06-14T12:07:41;1.47;;;1.00;;
37529;SDS011;23374;52.758;6.872;2023-06-14T12:10:08;1.97;;;1.30;;
37529;SDS011;23374;52.758;6.872;2023-06-14T12:12:30;2.03;;;1.03;;
37529;SDS011;23374;52.758;6.872;2023-06-14T12:14:51;2.77;;;1.30;;
37529;SDS011;23374;52.758;6.872;2023-06-14T12:17:12;2.47;;;1.40;;
37529;SDS011;23374;52.758;6.872;2023-06-14T12:19:33;1.40;;;1.20;;
37529;SDS011;23374;52.758;6.872;2023-06-14T12:22:05;2.10;;;1.20;;
37529;SDS011;23374;52.758;6.872;2023-06-14T12:24:28;1.67;;;1.07;;
37529;SDS011;23374;52.758;6.872;2023-06-14T12:26:51;1.53;;;1.23;;
37529;SDS011;23374;52.758;6.872;2023-06-14T12:29:12;3.00;;;1.30;;
37529;SDS011;23374;52.758;6.872;2023-06-14T12:31:33;3.23;;;1.30;;
37529;SDS011;23374;52.758;6.872;2023-06-14T12:33:53;1.50;;;1.17;;
37529;SDS011;23374;52.758;6.872;2023-06-14T12:36:14;1.70;;;1.27;;
37529;SDS011;23374;52.758;6.872;2023-06-14T12:38:35;4.37;;;1.30;;
37529;SDS011;23374;52.758;6.872;2023-06-14T12:40:56;1.50;;;1.30;;
37529;SDS011;23374;52.758;6.872;2023-06-14T12:43:18;2.30;;;1.33;;
37529;SDS011;23374;52.758;6.872;2023-06-14T12:45:38;3.03;;;1.40;;
37529;SDS011;23374;52.758;6.872;2023-06-14T12:47:59;2.40;;;0.70;;
37529;SDS011;23374;52.758;6.872;2023-06-14T12:50:19;1.70;;;1.20;;
37529;SDS011;23374;52.758;6.872;2023-06-14T12:52:40;3.50;;;1.53;;
37529;SDS011;23374;52.758;6.872;2023-06-14T12:55:00;2.63;;;1.40;;
37529;SDS011;23374;52.758;6.872;2023-06-14T12:57:20;1.93;;;1.03;;
37529;SDS011;23374;52.758;6.872;2023-06-14T12:59:40;2.03;;;1.20;;
37529;SDS011;23374;52.758;6.872;2023-06-14T13:03:01;2.40;;;1.47;;
37529;SDS011;23374;52.758;6.872;2023-06-14T13:05:22;2.57;;;1.17;;
37529;SDS011;23374;52.758;6.872;2023-06-14T13:07:42;1.50;;;1.40;;
37529;SDS011;23374;52.758;6.872;2023-06-14T13:10:03;2.33;;;1.10;;
37529;SDS011;23374;52.758;6.872;2023-06-14T13:12:24;1.43;;;1.33;;
37529;SDS011;23374;52.758;6.872;2023-06-14T13:14:45;2.13;;;1.20;;
37529;SDS011;23374;52.758;6.872;2023-06-14T13:17:06;1.60;;;1.20;;
37529;SDS011;23374;52.758;6.872;2023-06-14T13:19:30;2.00;;;1.27;;
37529;SDS011;23374;52.758;6.872;2023-06-14T13:21:50;2.27;;;1.20;;
37529;SDS011;23374;52.758;6.872;2023-06-14T13:24:10;2.47;;;1.03;;
37529;SDS011;23374;52.758;6.872;2023-06-14T13:26:32;1.87;;;1.30;;
37529;SDS011;23374;52.758;6.872;2023-06-14T13:28:52;7.47;;;1.43;;
37529;SDS011;23374;52.758;6.872;2023-06-14T13:31:12;2.70;;;1.20;;
37529;SDS011;23374;52.758;6.872;2023-06-14T13:33:33;1.17;;;1.03;;
37529;SDS011;23374;52.758;6.872;2023-06-14T13:35:53;1.63;;;1.53;;
37529;SDS011;23374;52.758;6.872;2023-06-14T13:38:13;1.50;;;1.10;;
37529;SDS011;23374;52.758;6.872;2023-06-14T13:40:34;1.43;;;1.30;;
37529;SDS011;23374;52.758;6.872;2023-06-14T13:42:55;2.20;;;1.40;;
37529;SDS011;23374;52.758;6.872;2023-06-14T13:45:15;1.30;;;1.20;;
37529;SDS011;23374;52.758;6.872;2023-06-14T13:47:36;2.07;;;0.83;;
37529;SDS011;23374;52.758;6.872;2023-06-14T13:49:56;2.23;;;1.23;;
37529;SDS011;23374;52.758;6.872;2023-06-14T13:52:17;3.57;;;1.30;;
37529;SDS011;23374;52.758;6.872;2023-06-14T13:54:37;3.40;;;1.47;;
37529;SDS011;23374;52.758;6.872;2023-06-14T13:56:57;1.10;;;1.00;;
37529;SDS011;23374;52.758;6.872;2023-06-14T13:59:18;1.80;;;1.40;;
37529;SDS011;23374;52.758;6.872;2023-06-14T14:01:39;1.47;;;1.30;;
37529;SDS011;23374;52.758;6.872;2023-06-14T14:03:59;2.43;;;1.20;;
37529;SDS011;23374;52.758;6.872;2023-06-14T14:06:20;2.67;;;1.23;;
37529;SDS011;23374;52.758;6.872;2023-06-14T14:08:40;3.47;;;1.13;;
37529;SDS011;23374;52.758;6.872;2023-06-14T14:11:01;1.37;;;1.10;;
37529;SDS011;23374;52.758;6.872;2023-06-14T14:13:22;2.43;;;1.40;;
37529;SDS011;23374;52.758;6.872;2023-06-14T14:15:43;1.60;;;1.30;;
37529;SDS011;23374;52.758;6.872;2023-06-14T14:18:03;3.10;;;1.40;;
37529;SDS011;23374;52.758;6.872;2023-06-14T14:20:25;1.77;;;1.33;;
37529;SDS011;23374;52.758;6.872;2023-06-14T14:22:45;1.13;;;1.03;;
37529;SDS011;23374;52.758;6.872;2023-06-14T14:25:05;1.77;;;1.30;;
37529;SDS011;23374;52.758;6.872;2023-06-14T14:27:26;1.17;;;1.00;;
37529;SDS011;23374;52.758;6.872;2023-06-14T14:29:46;1.97;;;1.27;;
37529;SDS011;23374;52.758;6.872;2023-06-14T14:32:08;1.00;;;0.70;;
37529;SDS011;23374;52.758;6.872;2023-06-14T14:34:33;2.13;;;1.33;;
37529;SDS011;23374;52.758;6.872;2023-06-14T14:36:54;3.03;;;1.40;;
37529;SDS011;23374;52.758;6.872;2023-06-14T14:39:14;3.10;;;1.40;;